Time;durP1;ratioP1;P1;durP2;ratioP2;P2;SDS_P1;SDS_P2;PMS_P1;PMS_P2;Temp;Humidity;BMP_temperature;BMP_pressure;BME280_temperature;BME280_humidity;BME280_pressure;Samples;Min_cycle;Max_cycle;Signal;HPM_P1;HPM_P2
2023/05/27 00:26:19;;;;;;;2.00;1.90;;;29.70;81.80;;;;;;6114678;23;20201;-96
2023/05/27 00:28:58;;;;;;;4.85;2.10;;;29.70;81.60;;;;;;6118559;23;20183;-96
2023/05/27 00:31:31;;;;;;;2.75;2.15;;;29.80;81.70;;;;;;6121301;23;20171;-96
2023/05/27 00:34:07;;;;;;;2.60;1.88;;;29.60;81.10;;;;;;6122983;23;20186;-95
2023/05/27 00:39:46;;;;;;;2.40;1.90;;;29.60;82.90;;;;;;6111708;23;20183;-96
2023/05/27 00:42:24;;;;;;;4.18;2.20;;;29.70;81.90;;;;;;6085010;23;20243;-96
2023/05/27 00:45:01;;;;;;;2.78;2.10;;;29.70;80.90;;;;;;6113466;23;20223;-96
2023/05/27 00:50:39;;;;;;;2.00;1.58;;;29.60;80.70;;;;;;6107224;23;20191;-96
2023/05/27 00:53:13;;;;;;;2.22;1.75;;;29.60;80.10;;;;;;6110858;23;20179;-96
2023/05/27 00:55:50;;;;;;;3.40;1.80;;;29.90;80.20;;;;;;6080785;23;20187;-96
2023/05/27 01:30:44;;;;;;;2.40;1.50;;;32.40;72.50;;;;;;6105645;23;20221;-95
2023/05/27 01:33:21;;;;;;;3.13;2.13;;;32.30;71.50;;;;;;6103949;23;20714;-95
2023/05/27 01:35:58;;;;;;;2.45;1.95;;;32.50;70.90;;;;;;6104532;23;20189;-95
2023/05/27 01:38:32;;;;;;;3.95;1.88;;;32.30;70.50;;;;;;6078312;23;20193;-96
2023/05/27 01:41:05;;;;;;;2.17;1.80;;;32.10;71.90;;;;;;6104830;23;20166;-96
2023/05/27 01:43:38;;;;;;;2.60;2.40;;;32.10;72.40;;;;;;6104917;23;20245;-96
2023/05/27 01:49:01;;;;;;;5.53;3.75;;;32.20;73.00;;;;;;6099505;23;20238;-95
2023/05/27 01:51:33;;;;;;;2.22;1.77;;;31.90;71.20;;;;;;6079652;23;20284;-95
2023/05/27 01:54:06;;;;;;;3.60;2.10;;;30.80;73.90;;;;;;6078879;23;20574;-96
2023/05/27 01:56:39;;;;;;;3.58;2.40;;;30.70;74.60;;;;;;6106418;23;20199;-96
2023/05/27 01:59:12;;;;;;;2.80;2.20;;;30.70;75.30;;;;;;6104544;23;20250;-96
2023/05/27 02:01:46;;;;;;;5.40;2.60;;;30.40;75.30;;;;;;6110162;23;20167;-96
2023/05/27 02:04:19;;;;;;;2.70;2.50;;;30.20;75.80;;;;;;6118593;23;20187;-96
2023/05/27 02:06:54;;;;;;;2.30;2.10;;;29.60;76.20;;;;;;6125024;23;20172;-94
2023/05/27 02:09:30;;;;;;;2.38;2.17;;;28.90;78.30;;;;;;6124323;23;20189;-96
2023/05/27 02:17:31;;;;;;;2.40;2.20;;;27.70;81.70;;;;;;6169656;23;20285;-96
2023/05/27 02:20:08;;;;;;;3.07;2.40;;;27.50;82.30;;;;;;6150307;23;20162;-96
2023/05/27 02:22:42;;;;;;;3.50;2.40;;;27.40;83.10;;;;;;6150681;23;20505;-96
2023/05/27 02:25:15;;;;;;;3.90;2.50;;;27.20;84.80;;;;;;6151644;23;20178;-96
2023/05/27 02:27:56;;;;;;;4.40;2.40;;;27.10;84.40;;;;;;6151313;23;20178;-96
2023/05/27 02:30:34;;;;;;;2.67;2.47;;;26.60;86.90;;;;;;6150877;23;20179;-96
2023/05/27 02:33:10;;;;;;;3.07;2.73;;;26.20;88.50;;;;;;6148729;23;20174;-96
2023/05/27 02:35:46;;;;;;;4.90;3.00;;;26.20;90.00;;;;;;6143162;23;20170;-96
2023/05/27 02:38:20;;;;;;;3.47;2.70;;;25.80;90.50;;;;;;6122059;23;20202;-96
2023/05/27 02:40:55;;;;;;;3.10;2.73;;;25.60;91.20;;;;;;6146841;23;20166;-96
2023/05/27 02:43:28;;;;;;;3.30;3.00;;;25.40;92.00;;;;;;6150517;23;20207;-96
2023/05/27 02:46:00;;;;;;;6.10;2.97;;;25.40;92.30;;;;;;6152675;23;20210;-96
2023/05/27 02:48:38;;;;;;;4.23;3.03;;;25.20;92.70;;;;;;6153259;23;20166;-94
2023/05/27 02:51:11;;;;;;;4.90;3.33;;;25.00;93.90;;;;;;6154334;23;20159;-96
2023/05/27 02:53:48;;;;;;;3.80;3.40;;;24.90;93.50;;;;;;6153770;23;20194;-96
2023/05/27 02:56:25;;;;;;;4.27;2.97;;;24.70;93.80;;;;;;6151785;23;20186;-96
2023/05/27 02:58:58;;;;;;;4.50;3.10;;;24.60;94.10;;;;;;6106775;23;20220;-95
2023/05/27 03:01:30;;;;;;;6.43;3.67;;;24.50;94.30;;;;;;6153945;23;20185;-96
2023/05/27 03:04:07;;;;;;;3.50;2.90;;;24.50;94.60;;;;;;6153248;23;20166;-96
2023/05/27 03:06:41;;;;;;;5.57;3.10;;;24.20;95.00;;;;;;6152427;23;20186;-96
2023/05/27 03:09:16;;;;;;;5.77;3.70;;;24.20;95.40;;;;;;6152845;23;20234;-94
2023/05/27 03:19:50;;;;;;;3.83;2.90;;;23.70;97.50;;;;;;6116045;23;20202;-96
2023/05/27 03:22:22;;;;;;;4.57;3.40;;;23.60;96.80;;;;;;6097340;23;20222;-96
2023/05/27 03:41:11;;;;;;;4.13;3.40;;;22.80;99.90;;;;;;6153184;23;20205;-96
2023/05/27 03:43:48;;;;;;;4.10;3.33;;;22.60;99.90;;;;;;6127151;23;20181;-95
2023/05/27 03:46:20;;;;;;;7.60;3.50;;;22.60;99.50;;;;;;6152769;23;20201;-95
2023/05/27 03:48:53;;;;;;;3.80;3.50;;;22.60;99.90;;;;;;6151519;23;20178;-93
2023/05/27 03:51:26;;;;;;;4.40;3.37;;;22.40;99.70;;;;;;6152666;23;20178;-96
2023/05/27 03:53:58;;;;;;;5.73;3.53;;;22.30;99.90;;;;;;6149032;23;20241;-96
2023/05/27 03:56:33;;;;;;;3.57;3.23;;;22.20;99.90;;;;;;6148586;23;20175;-96
2023/05/27 03:59:08;;;;;;;4.27;3.50;;;22.20;99.90;;;;;;6119929;23;20265;-96
2023/05/27 04:01:45;;;;;;;4.13;3.40;;;22.00;99.90;;;;;;6146168;23;20178;-96
2023/05/27 04:04:21;;;;;;;3.80;3.37;;;21.90;99.90;;;;;;6124019;23;20209;-96
2023/05/27 04:06:55;;;;;;;4.30;3.30;;;21.80;99.90;;;;;;6146155;23;20178;-96
2023/05/27 04:09:28;;;;;;;5.40;3.50;;;21.60;99.90;;;;;;6141770;23;20259;-96
2023/05/27 04:12:03;;;;;;;4.87;3.60;;;21.50;99.90;;;;;;6120816;23;20178;-96
2023/05/27 04:38:59;;;;;;;4.67;2.93;;;20.80;99.90;;;;;;6142973;23;20204;-96
2023/05/27 04:41:34;;;;;;;5.03;2.90;;;20.70;99.90;;;;;;6120485;23;20171;-96
2023/05/27 04:44:08;;;;;;;6.93;3.30;;;20.70;99.90;;;;;;6118885;23;20198;-96
2023/05/27 04:46:43;;;;;;;4.87;2.80;;;20.70;99.90;;;;;;6114714;23;20182;-96
2023/05/27 04:49:17;;;;;;;8.50;3.20;;;20.60;99.90;;;;;;6113375;23;20171;-95
2023/05/27 04:51:50;;;;;;;5.80;2.93;;;20.50;99.90;;;;;;6112212;23;20242;-96
2023/05/27 04:54:25;;;;;;;5.93;3.30;;;20.40;99.90;;;;;;6116337;23;20179;-95
2023/05/27 04:57:00;;;;;;;3.53;2.70;;;20.30;99.90;;;;;;6116716;23;20182;-96
2023/05/27 04:59:46;;;;;;;5.53;2.90;;;20.20;99.90;;;;;;6113137;23;20208;-95
2023/05/27 05:02:25;;;;;;;6.93;2.83;;;20.10;99.90;;;;;;6114369;23;20206;-96
2023/05/27 05:04:59;;;;;;;6.43;2.57;;;20.00;99.90;;;;;;6109238;23;20175;-96
2023/05/27 05:07:31;;;;;;;6.60;3.27;;;19.90;99.90;;;;;;6112151;23;20602;-96
2023/05/27 05:10:11;;;;;;;4.53;3.00;;;19.90;99.90;;;;;;6108539;23;20170;-96
2023/05/27 05:12:43;;;;;;;3.67;2.67;;;19.80;99.90;;;;;;6107102;23;20697;-95
2023/05/27 05:15:16;;;;;;;5.83;2.80;;;19.70;99.90;;;;;;6109980;23;20186;-96
2023/05/27 05:17:50;;;;;;;6.13;2.80;;;19.60;99.90;;;;;;6108357;23;20214;-96
2023/05/27 05:20:25;;;;;;;6.47;2.80;;;19.50;99.90;;;;;;6120532;23;20190;-96
2023/05/27 05:36:26;;;;;;;5.57;2.60;;;18.90;99.90;;;;;;6163189;23;20199;-96
2023/05/27 05:38:58;;;;;;;6.00;2.63;;;18.70;99.90;;;;;;6210591;23;20196;-96
2023/05/27 05:50:48;;;;;;;5.20;2.50;;;18.40;99.90;;;;;;6077172;23;20235;-96
2023/05/27 05:53:25;;;;;;;4.20;2.23;;;18.20;99.90;;;;;;6087431;23;20191;-96
2023/05/27 05:55:59;;;;;;;6.83;2.53;;;18.20;99.90;;;;;;6086853;23;20187;-96
2023/05/27 05:58:32;;;;;;;5.77;3.00;;;18.10;99.90;;;;;;6078670;23;20695;-96
2023/05/27 06:01:05;;;;;;;7.47;2.70;;;18.00;99.90;;;;;;6075923;23;20214;-96
2023/05/27 06:03:36;;;;;;;7.37;2.83;;;18.00;99.90;;;;;;6079298;23;20199;-95
2023/05/27 06:06:09;;;;;;;7.27;2.07;;;17.90;99.90;;;;;;6082810;23;20176;-95
2023/05/27 06:08:45;;;;;;;5.10;2.47;;;17.80;99.90;;;;;;6055270;23;20186;-96
2023/05/27 06:11:19;;;;;;;7.97;2.70;;;17.80;99.90;;;;;;6076892;23;20639;-96
2023/05/27 06:13:53;;;;;;;6.40;2.63;;;17.70;99.90;;;;;;6050767;23;20191;-96
2023/05/27 06:16:28;;;;;;;8.10;2.63;;;17.70;99.90;;;;;;6075303;23;20243;-96
2023/05/27 06:19:00;;;;;;;8.03;2.43;;;17.70;99.90;;;;;;6050367;23;20207;-96
2023/05/27 06:21:35;;;;;;;6.20;2.50;;;17.70;99.90;;;;;;6076012;23;20176;-96
2023/05/27 06:24:11;;;;;;;8.53;2.70;;;17.60;99.90;;;;;;6080572;23;20214;-96
2023/05/27 06:26:46;;;;;;;7.93;2.97;;;17.60;99.90;;;;;;6089899;23;20183;-96
2023/05/27 06:29:19;;;;;;;11.53;3.20;;;17.50;99.90;;;;;;6088743;23;20179;-96
2023/05/27 06:31:52;;;;;;;11.03;2.90;;;17.50;99.90;;;;;;6139490;23;20488;-96
2023/05/27 06:34:29;;;;;;;7.30;2.43;;;17.40;99.90;;;;;;6177855;23;20180;-96
2023/05/27 06:37:02;;;;;;;7.30;2.73;;;17.40;99.90;;;;;;6179897;23;20522;-96
2023/05/27 06:39:37;;;;;;;7.53;2.83;;;17.40;99.90;;;;;;6176033;23;20206;-96
2023/05/27 06:42:12;;;;;;;7.07;2.30;;;17.20;99.90;;;;;;6176685;23;20181;-96
2023/05/27 06:44:47;;;;;;;9.77;2.57;;;17.30;99.90;;;;;;6174192;23;20196;-96
2023/05/27 06:47:20;;;;;;;8.13;2.80;;;17.20;99.90;;;;;;6175094;23;20169;-96
2023/05/27 06:49:53;;;;;;;5.13;2.60;;;17.20;99.90;;;;;;6173441;23;20245;-96
2023/05/27 06:52:27;;;;;;;8.43;2.73;;;17.20;99.90;;;;;;6174838;23;20186;-96
2023/05/27 06:55:01;;;;;;;7.93;2.87;;;17.10;99.90;;;;;;6170180;23;20193;-96
2023/05/27 06:57:36;;;;;;;7.07;3.10;;;17.10;99.90;;;;;;6170041;23;20212;-96
2023/05/27 07:00:09;;;;;;;5.97;2.90;;;17.00;99.90;;;;;;6163946;23;20202;-96
2023/05/27 07:02:41;;;;;;;8.17;2.73;;;17.00;99.90;;;;;;6163104;23;20234;-95
2023/05/27 07:05:12;;;;;;;6.40;2.80;;;17.00;99.90;;;;;;6161864;23;20181;-95
2023/05/27 07:07:44;;;;;;;5.80;2.50;;;16.90;99.90;;;;;;6162017;23;20184;-96
2023/05/27 07:10:20;;;;;;;7.00;2.60;;;16.90;99.90;;;;;;6161811;23;20200;-95
2023/05/27 07:12:56;;;;;;;10.47;3.17;;;16.90;99.90;;;;;;6162323;23;20181;-96
2023/05/27 07:15:38;;;;;;;6.43;2.80;;;16.80;99.90;;;;;;6165816;23;20241;-95
2023/05/27 07:18:15;;;;;;;7.17;2.33;;;16.70;99.90;;;;;;6168617;23;20177;-95
2023/05/27 07:20:49;;;;;;;7.93;2.80;;;16.70;99.90;;;;;;6165665;23;20209;-96
2023/05/27 07:23:21;;;;;;;11.83;3.40;;;16.50;99.90;;;;;;6161638;23;20173;-96
2023/05/27 07:25:55;;;;;;;7.67;2.97;;;16.50;99.90;;;;;;6160870;23;20224;-96
2023/05/27 07:28:27;;;;;;;5.00;2.50;;;16.40;99.90;;;;;;6161133;23;20555;-96
2023/05/27 07:31:00;;;;;;;7.47;3.00;;;16.30;99.90;;;;;;6174764;23;20189;-96
2023/05/27 07:33:32;;;;;;;7.67;2.63;;;16.20;99.90;;;;;;6172583;23;20558;-96
2023/05/27 07:36:04;;;;;;;7.67;2.97;;;16.20;99.90;;;;;;6173400;23;20189;-96
2023/05/27 07:38:36;;;;;;;10.10;3.00;;;16.20;99.90;;;;;;6171948;23;20208;-96
2023/05/27 07:41:12;;;;;;;5.90;2.73;;;16.10;99.90;;;;;;6167600;23;20261;-96
2023/05/27 07:43:45;;;;;;;8.80;2.93;;;16.00;99.90;;;;;;6172029;23;20237;-96
2023/05/27 07:46:30;;;;;;;5.97;2.40;;;15.90;99.90;;;;;;6171947;23;20200;-96
2023/05/27 07:49:16;;;;;;;7.60;3.10;;;15.90;99.90;;;;;;6168789;23;20208;-96
2023/05/27 07:51:50;;;;;;;7.77;3.13;;;15.70;99.90;;;;;;6170562;23;20177;-96
2023/05/27 07:54:26;;;;;;;10.17;2.67;;;15.60;99.90;;;;;;6172363;23;20197;-96
2023/05/27 07:57:06;;;;;;;10.00;3.03;;;15.60;99.90;;;;;;6176373;23;20177;-96
2023/05/27 07:59:38;;;;;;;7.90;2.63;;;15.60;99.90;;;;;;6167260;23;20212;-96
2023/05/27 08:02:11;;;;;;;6.93;2.80;;;15.60;99.90;;;;;;6163084;23;20229;-96
2023/05/27 08:04:43;;;;;;;6.33;2.50;;;15.60;99.90;;;;;;6173023;23;20177;-95
2023/05/27 08:07:15;;;;;;;6.47;2.40;;;15.60;99.90;;;;;;6181194;23;20177;-96
2023/05/27 08:09:47;;;;;;;7.67;3.13;;;15.60;99.90;;;;;;6180091;23;20178;-96
2023/05/27 08:12:22;;;;;;;7.77;2.73;;;15.60;99.90;;;;;;6179388;23;20237;-96
2023/05/27 08:14:54;;;;;;;7.17;2.60;;;15.60;99.90;;;;;;6175956;23;20192;-95
2023/05/27 08:17:26;;;;;;;8.77;2.93;;;15.60;99.90;;;;;;6171091;23;20193;-96
2023/05/27 08:19:58;;;;;;;6.87;2.53;;;15.60;99.90;;;;;;6159692;23;20198;-96
2023/05/27 08:22:29;;;;;;;6.77;2.60;;;15.50;99.90;;;;;;6160910;23;20276;-96
2023/05/27 08:25:04;;;;;;;8.50;2.40;;;15.50;99.90;;;;;;6162984;23;20529;-96
2023/05/27 08:27:53;;;;;;;8.80;3.33;;;15.40;99.90;;;;;;6164607;23;20188;-94
2023/05/27 08:30:26;;;;;;;7.87;2.43;;;15.40;99.90;;;;;;6167894;23;20193;-93
2023/05/27 08:32:58;;;;;;;8.03;2.63;;;15.40;99.90;;;;;;6163162;23;20220;-96
2023/05/27 08:35:30;;;;;;;9.13;3.50;;;15.40;99.90;;;;;;6165835;23;20178;-96
2023/05/27 08:38:07;;;;;;;9.37;3.40;;;15.30;99.90;;;;;;6167319;23;20177;-96
2023/05/27 08:40:39;;;;;;;7.57;3.57;;;15.30;99.90;;;;;;6167859;23;20252;-96
2023/05/27 08:43:20;;;;;;;6.53;3.23;;;15.40;99.90;;;;;;6169172;23;20181;-96
2023/05/27 08:45:53;;;;;;;7.20;3.77;;;15.40;99.90;;;;;;6170227;23;20189;-96
2023/05/27 08:48:26;;;;;;;7.73;3.63;;;15.40;99.90;;;;;;6170393;23;20639;-96
2023/05/27 08:51:00;;;;;;;8.37;4.07;;;15.40;99.90;;;;;;6173873;23;20249;-96
2023/05/27 08:53:34;;;;;;;8.03;4.23;;;15.30;99.90;;;;;;6168941;23;20205;-96
2023/05/27 08:56:08;;;;;;;6.80;4.00;;;15.30;99.90;;;;;;6164971;23;20181;-96
2023/05/27 08:58:45;;;;;;;6.73;3.73;;;15.30;99.90;;;;;;6163866;23;20232;-96
2023/05/27 09:01:21;;;;;;;6.10;4.30;;;15.30;99.90;;;;;;6168662;23;20212;-96
2023/05/27 09:03:54;;;;;;;6.87;4.20;;;15.30;99.90;;;;;;6163020;23;20260;-95
2023/05/27 09:06:25;;;;;;;8.20;4.80;;;15.20;99.90;;;;;;6160376;23;20242;-96
2023/05/27 09:08:57;;;;;;;6.37;4.73;;;15.20;99.90;;;;;;6158965;23;20196;-96
2023/05/27 09:11:35;;;;;;;8.63;4.77;;;15.10;99.90;;;;;;6164775;23;20176;-95
2023/05/27 09:14:10;;;;;;;6.53;4.87;;;15.10;99.90;;;;;;6162429;23;20191;-96
2023/05/27 09:16:45;;;;;;;5.43;4.40;;;15.10;99.90;;;;;;6171326;23;20176;-95
2023/05/27 09:19:21;;;;;;;8.33;5.13;;;15.10;99.90;;;;;;6171137;23;20224;-93
2023/05/27 09:21:55;;;;;;;7.07;4.93;;;15.00;99.90;;;;;;6173349;23;20228;-95
2023/05/27 09:24:30;;;;;;;9.07;5.27;;;15.00;99.90;;;;;;6157160;23;20259;-96
2023/05/27 09:27:04;;;;;;;5.80;5.03;;;15.00;99.90;;;;;;6158151;23;20201;-96
2023/05/27 09:29:41;;;;;;;6.93;4.63;;;14.90;99.90;;;;;;6156871;23;20284;-96
2023/05/27 09:32:13;;;;;;;8.63;4.50;;;14.90;99.90;;;;;;6156550;23;20235;-95
2023/05/27 09:34:49;;;;;;;10.13;5.30;;;14.90;99.90;;;;;;6157075;23;20311;-96
2023/05/27 09:37:21;;;;;;;8.57;5.23;;;14.80;99.90;;;;;;6159077;23;20289;-96
2023/05/27 09:39:55;;;;;;;7.57;4.80;;;14.80;99.90;;;;;;6164968;23;20182;-95
2023/05/27 09:42:26;;;;;;;8.40;4.90;;;14.80;99.90;;;;;;6172368;23;20601;-95
2023/05/27 09:45:09;;;;;;;8.20;5.00;;;14.80;99.90;;;;;;6163091;23;20192;-96
2023/05/27 09:47:43;;;;;;;9.60;5.27;;;14.80;99.90;;;;;;6163259;23;20220;-96
2023/05/27 09:50:16;;;;;;;8.40;5.27;;;14.70;99.90;;;;;;6162529;23;20301;-96
2023/05/27 09:52:50;;;;;;;8.83;5.13;;;14.70;99.90;;;;;;6162366;23;20280;-96
2023/05/27 09:55:25;;;;;;;11.33;5.70;;;14.70;99.90;;;;;;6173158;23;20165;-96
2023/05/27 09:57:57;;;;;;;8.53;5.27;;;14.50;99.90;;;;;;6163812;23;20232;-96
2023/05/27 10:00:35;;;;;;;12.47;5.43;;;14.50;99.90;;;;;;6162411;23;20237;-96
2023/05/27 10:03:06;;;;;;;11.13;5.63;;;14.50;99.90;;;;;;6163099;23;20182;-96
2023/05/27 10:05:40;;;;;;;7.17;4.97;;;14.40;99.90;;;;;;6163114;23;20177;-96
2023/05/27 10:08:13;;;;;;;7.63;4.90;;;14.40;99.90;;;;;;6163481;23;20260;-96
2023/05/27 10:10:56;;;;;;;10.60;5.60;;;14.30;99.90;;;;;;6161407;23;20217;-96
2023/05/27 10:13:29;;;;;;;12.23;5.20;;;14.30;99.90;;;;;;6161179;23;20181;-95
2023/05/27 10:16:03;;;;;;;11.10;4.87;;;14.30;99.90;;;;;;6160932;23;20243;-96
2023/05/27 10:18:35;;;;;;;9.23;5.17;;;14.20;99.90;;;;;;6179013;23;20173;-95
2023/05/27 10:21:09;;;;;;;11.13;5.00;;;14.20;99.90;;;;;;6181725;23;20242;-96
2023/05/27 10:23:41;;;;;;;9.80;5.40;;;14.10;99.90;;;;;;6171519;23;20188;-96
2023/05/27 10:26:13;;;;;;;12.50;5.40;;;14.00;99.90;;;;;;6159618;23;20184;-96
2023/05/27 10:28:44;;;;;;;13.23;5.27;;;14.00;99.90;;;;;;6159188;23;20189;-95
2023/05/27 10:31:20;;;;;;;11.50;5.60;;;14.00;99.90;;;;;;6160259;23;20208;-95
2023/05/27 10:33:53;;;;;;;11.97;4.93;;;14.00;99.90;;;;;;6161080;23;20174;-96
2023/05/27 10:36:31;;;;;;;7.57;4.67;;;14.00;99.90;;;;;;6162618;23;20265;-95
2023/05/27 10:39:07;;;;;;;10.07;4.70;;;14.00;99.90;;;;;;6164856;23;20185;-96
2023/05/27 10:41:44;;;;;;;12.83;5.17;;;13.90;99.90;;;;;;6159153;23;20280;-96
2023/05/27 10:44:16;;;;;;;10.37;5.50;;;13.90;99.90;;;;;;6160112;23;20189;-96
2023/05/27 10:46:49;;;;;;;10.53;4.73;;;13.80;99.90;;;;;;6165365;23;20572;-96
2023/05/27 10:49:27;;;;;;;11.00;4.80;;;13.90;99.90;;;;;;6163936;23;20178;-96
2023/05/27 10:52:04;;;;;;;11.63;5.07;;;13.90;99.90;;;;;;6171204;23;20216;-95
2023/05/27 10:54:38;;;;;;;9.77;4.70;;;13.90;99.90;;;;;;6176475;23;20243;-96
2023/05/27 10:57:10;;;;;;;10.77;4.50;;;13.90;99.90;;;;;;6179471;23;20166;-96
2023/05/27 10:59:47;;;;;;;11.03;5.47;;;13.90;99.90;;;;;;6176724;23;20166;-96
2023/05/27 11:02:22;;;;;;;9.80;4.40;;;13.90;99.90;;;;;;6173510;23;20193;-96
2023/05/27 11:04:54;;;;;;;10.40;4.80;;;13.80;99.90;;;;;;6171671;23;20176;-96
2023/05/27 11:07:26;;;;;;;13.20;5.30;;;13.80;99.90;;;;;;6171226;23;20188;-96
2023/05/27 11:09:57;;;;;;;10.17;4.80;;;13.70;99.90;;;;;;6169950;23;20193;-96
2023/05/27 11:12:30;;;;;;;9.57;4.80;;;13.60;99.90;;;;;;6162371;23;20174;-96
2023/05/27 11:15:02;;;;;;;10.27;5.10;;;13.60;99.90;;;;;;6161697;23;20166;-95
2023/05/27 11:17:38;;;;;;;11.90;4.77;;;13.60;99.90;;;;;;6158315;23;20180;-95
2023/05/27 11:20:10;;;;;;;10.27;4.67;;;13.50;99.90;;;;;;6162079;23;20177;-95
2023/05/27 11:22:42;;;;;;;11.83;5.07;;;13.40;99.90;;;;;;6161064;23;20225;-95
2023/05/27 11:25:13;;;;;;;12.03;4.57;;;13.40;99.90;;;;;;6168606;23;20202;-95
2023/05/27 11:27:44;;;;;;;10.50;5.47;;;13.30;99.90;;;;;;6161263;23;20174;-95
2023/05/27 11:30:17;;;;;;;9.93;5.03;;;13.30;99.90;;;;;;6157036;23;20272;-95
2023/05/27 11:32:52;;;;;;;11.30;4.70;;;13.30;99.90;;;;;;6157405;23;20189;-95
2023/05/27 11:35:27;;;;;;;15.27;5.73;;;13.30;99.90;;;;;;6157738;23;20170;-96
2023/05/27 11:38:01;;;;;;;12.53;4.60;;;13.30;99.90;;;;;;6157589;23;20192;-95
2023/05/27 11:40:42;;;;;;;11.20;4.70;;;13.40;99.90;;;;;;6160250;23;20210;-96
2023/05/27 11:43:20;;;;;;;12.27;4.90;;;13.40;99.90;;;;;;6157739;23;20638;-95
2023/05/27 11:45:51;;;;;;;9.63;5.23;;;13.40;99.90;;;;;;6158117;23;20189;-94
2023/05/27 11:48:25;;;;;;;11.80;4.50;;;13.30;99.90;;;;;;6157223;23;20179;-94
2023/05/27 11:50:58;;;;;;;13.40;5.27;;;13.20;99.90;;;;;;6161268;23;20178;-96
2023/05/27 11:53:31;;;;;;;13.73;5.03;;;13.10;99.90;;;;;;6160115;23;20178;-96
2023/05/27 11:56:05;;;;;;;9.43;4.47;;;13.20;99.90;;;;;;6162479;23;20184;-96
2023/05/27 11:58:38;;;;;;;15.20;4.27;;;13.10;99.90;;;;;;6159977;23;20182;-96
2023/05/27 12:01:10;;;;;;;11.07;4.60;;;13.10;99.90;;;;;;6163460;23;20205;-96
2023/05/27 12:03:45;;;;;;;10.83;4.63;;;13.20;99.90;;;;;;6168474;23;20209;-95
2023/05/27 12:06:17;;;;;;;15.23;5.30;;;13.20;99.90;;;;;;6167976;23;20180;-95
2023/05/27 12:08:49;;;;;;;12.47;5.00;;;13.10;99.90;;;;;;6170929;23;20178;-96
2023/05/27 12:11:24;;;;;;;12.77;4.50;;;13.00;99.90;;;;;;6177226;23;20257;-96
2023/05/27 12:13:58;;;;;;;12.47;4.77;;;13.10;99.90;;;;;;6168439;23;20194;-96
2023/05/27 12:16:32;;;;;;;12.03;5.70;;;13.00;99.90;;;;;;6169871;23;20205;-96
2023/05/27 12:19:07;;;;;;;14.90;4.93;;;13.00;99.90;;;;;;6162611;23;20493;-96
2023/05/27 12:21:40;;;;;;;14.23;4.80;;;13.10;99.90;;;;;;6162514;23;20236;-95
2023/05/27 12:24:13;;;;;;;13.60;5.37;;;13.10;99.90;;;;;;6160928;23;20185;-95
2023/05/27 12:26:45;;;;;;;14.40;4.90;;;13.00;99.90;;;;;;6161594;23;20262;-95
2023/05/27 12:29:16;;;;;;;12.17;4.90;;;13.10;99.90;;;;;;6170349;23;20181;-95
2023/05/27 12:31:49;;;;;;;15.13;5.07;;;13.00;99.90;;;;;;6180676;23;20185;-92
2023/05/27 12:34:25;;;;;;;15.90;5.00;;;13.00;99.90;;;;;;6179682;23;20200;-96
2023/05/27 12:37:00;;;;;;;12.57;5.27;;;13.00;99.90;;;;;;6162684;23;20193;-94
2023/05/27 12:39:31;;;;;;;12.57;5.10;;;13.10;99.90;;;;;;6160624;23;20189;-95
2023/05/27 12:42:04;;;;;;;17.60;5.40;;;13.10;99.90;;;;;;6165253;23;20241;-96
2023/05/27 12:44:36;;;;;;;13.83;4.93;;;13.10;99.90;;;;;;6160158;23;20190;-95
2023/05/27 12:47:07;;;;;;;15.50;5.33;;;13.10;99.90;;;;;;6161574;23;20224;-95
2023/05/27 12:49:42;;;;;;;15.23;5.20;;;13.20;99.90;;;;;;6159678;23;20708;-96
2023/05/27 12:52:14;;;;;;;14.47;4.70;;;13.20;99.90;;;;;;6159808;23;20178;-95
2023/05/27 12:54:45;;;;;;;12.13;3.90;;;13.20;99.90;;;;;;6161064;23;20177;-96
2023/05/27 12:57:17;;;;;;;10.30;4.60;;;13.20;99.90;;;;;;6162512;23;20178;-96
2023/05/27 12:59:51;;;;;;;15.10;5.20;;;13.30;99.90;;;;;;6162149;23;20233;-96
2023/05/27 13:02:23;;;;;;;13.93;5.07;;;13.10;99.90;;;;;;6162620;23;20229;-96
2023/05/27 13:04:57;;;;;;;17.50;5.53;;;13.10;99.90;;;;;;6163483;23;20186;-96
2023/05/27 13:07:29;;;;;;;16.73;5.53;;;13.10;99.90;;;;;;6161853;23;20177;-96
2023/05/27 13:10:06;;;;;;;14.27;5.20;;;13.10;99.90;;;;;;6163442;23;20185;-95
2023/05/27 13:12:38;;;;;;;11.70;5.30;;;13.20;99.90;;;;;;6164460;23;20236;-96
2023/05/27 13:15:11;;;;;;;13.83;4.93;;;13.30;99.90;;;;;;6167840;23;20181;-95
2023/05/27 13:17:43;;;;;;;10.37;5.43;;;13.20;99.90;;;;;;6166903;23;20200;-95
2023/05/27 13:20:24;;;;;;;13.20;5.00;;;13.20;99.90;;;;;;6164764;23;20182;-96
2023/05/27 13:22:59;;;;;;;14.57;4.90;;;13.30;99.90;;;;;;6163463;23;20288;-96
2023/05/27 13:25:32;;;;;;;8.80;4.20;;;13.30;99.90;;;;;;6162321;23;20243;-94
2023/05/27 13:28:04;;;;;;;12.60;4.97;;;13.40;99.90;;;;;;6161198;23;20248;-95
2023/05/27 13:30:36;;;;;;;13.30;5.07;;;13.30;99.90;;;;;;6164740;23;20181;-96
2023/05/27 13:33:07;;;;;;;11.13;4.83;;;13.40;99.90;;;;;;6167447;23;20181;-94
2023/05/27 13:35:41;;;;;;;9.77;4.67;;;13.30;99.90;;;;;;6181074;23;20168;-95
2023/05/27 13:38:14;;;;;;;13.27;4.67;;;13.40;99.90;;;;;;6179347;23;20189;-95
2023/05/27 13:40:46;;;;;;;14.33;4.90;;;13.40;99.90;;;;;;6178062;23;20170;-95
2023/05/27 13:43:18;;;;;;;12.33;4.87;;;13.40;99.90;;;;;;6172527;23;20264;-94
2023/05/27 13:45:49;;;;;;;12.40;4.70;;;13.40;99.90;;;;;;6172452;23;20203;-95
2023/05/27 13:48:21;;;;;;;10.93;4.43;;;13.50;99.90;;;;;;6170286;23;20216;-96
2023/05/27 13:50:57;;;;;;;12.20;4.93;;;13.60;99.90;;;;;;6162494;23;20177;-94
2023/05/27 13:53:29;;;;;;;12.33;4.20;;;13.50;99.90;;;;;;6163596;23;20181;-95
2023/05/27 13:56:01;;;;;;;14.30;4.20;;;13.50;99.90;;;;;;6164656;23;20180;-95
2023/05/27 13:58:32;;;;;;;14.93;4.60;;;13.60;99.90;;;;;;6162710;23;20241;-96
2023/05/27 14:01:08;;;;;;;10.80;4.87;;;13.60;99.90;;;;;;6165575;23;20656;-96
2023/05/27 14:03:40;;;;;;;14.70;5.50;;;13.70;99.90;;;;;;6164684;23;20256;-96
2023/05/27 14:06:14;;;;;;;10.23;4.60;;;13.70;99.90;;;;;;6164061;23;20166;-96
2023/05/27 14:08:47;;;;;;;13.03;5.67;;;13.50;99.90;;;;;;6163256;23;20177;-96
2023/05/27 14:11:21;;;;;;;11.57;4.67;;;13.60;99.90;;;;;;6163892;23;20213;-96
2023/05/27 14:13:54;;;;;;;13.37;5.20;;;13.70;99.90;;;;;;6163943;23;20265;-96
2023/05/27 14:16:25;;;;;;;11.27;5.33;;;13.70;99.90;;;;;;6164025;23;20193;-96
2023/05/27 14:18:59;;;;;;;12.93;5.60;;;13.70;99.90;;;;;;6163926;23;20173;-96
2023/05/27 14:21:35;;;;;;;14.73;5.93;;;13.60;99.90;;;;;;6141450;23;20189;-96
2023/05/27 14:24:09;;;;;;;12.67;5.40;;;13.40;99.90;;;;;;6164822;23;20201;-96
2023/05/27 14:26:41;;;;;;;12.00;5.90;;;13.50;99.90;;;;;;6167547;23;20177;-94
2023/05/27 14:29:14;;;;;;;11.20;5.27;;;13.50;99.90;;;;;;6164095;23;20181;-95
2023/05/27 14:31:46;;;;;;;11.97;5.03;;;13.40;99.90;;;;;;6163730;23;20796;-96
2023/05/27 14:34:18;;;;;;;11.23;5.00;;;13.40;99.90;;;;;;6162486;23;20211;-95
2023/05/27 14:36:51;;;;;;;11.13;4.73;;;13.40;99.90;;;;;;6164458;23;20245;-95
2023/05/27 14:39:23;;;;;;;10.27;4.73;;;13.40;99.90;;;;;;6167916;23;20182;-95
2023/05/27 14:41:55;;;;;;;10.63;4.20;;;13.40;99.90;;;;;;6179723;23;20177;-95
2023/05/27 14:44:28;;;;;;;13.83;4.73;;;13.60;99.90;;;;;;6180484;23;20248;-95
2023/05/27 14:47:00;;;;;;;11.87;4.43;;;13.50;99.90;;;;;;6169851;23;20204;-95
2023/05/27 14:49:31;;;;;;;10.40;4.50;;;13.40;99.90;;;;;;6163783;23;20265;-95
2023/05/27 14:52:05;;;;;;;10.97;4.40;;;13.50;99.90;;;;;;6164270;23;20237;-95
2023/05/27 14:54:36;;;;;;;8.77;4.20;;;13.50;99.90;;;;;;6164410;23;20185;-94
2023/05/27 14:57:08;;;;;;;8.50;4.13;;;13.50;99.90;;;;;;6166007;23;20183;-95
2023/05/27 14:59:40;;;;;;;11.20;4.50;;;13.60;99.90;;;;;;6165276;23;20176;-96
2023/05/27 15:02:12;;;;;;;12.97;4.10;;;13.60;99.90;;;;;;6166219;23;20182;-94
2023/05/27 15:04:44;;;;;;;11.43;4.20;;;13.60;99.90;;;;;;6169077;23;20201;-96
2023/05/27 15:07:22;;;;;;;13.00;4.00;;;13.90;99.90;;;;;;6170557;23;20181;-96
2023/05/27 15:09:54;;;;;;;13.30;4.20;;;13.70;99.90;;;;;;6172231;23;20560;-95
2023/05/27 15:12:27;;;;;;;9.00;3.83;;;14.00;99.90;;;;;;6176719;23;20266;-95
2023/05/27 15:15:00;;;;;;;8.60;3.80;;;13.80;99.90;;;;;;6167818;23;20260;-96
2023/05/27 15:17:35;;;;;;;11.53;4.03;;;13.90;99.90;;;;;;6164946;23;20265;-96
2023/05/27 15:20:07;;;;;;;7.47;4.07;;;13.80;99.90;;;;;;6165557;23;20185;-96
2023/05/27 15:22:42;;;;;;;10.73;3.57;;;14.00;99.90;;;;;;6166137;23;20188;-96
2023/05/27 15:25:13;;;;;;;7.90;3.40;;;14.10;99.90;;;;;;6165359;23;20182;-96
2023/05/27 15:27:50;;;;;;;8.43;3.33;;;14.30;99.90;;;;;;6162441;23;20184;-95
2023/05/27 15:30:21;;;;;;;6.80;3.20;;;14.50;99.90;;;;;;6164740;23;20252;-96
2023/05/27 15:32:54;;;;;;;10.47;3.80;;;14.60;99.90;;;;;;6162448;23;20193;-96
2023/05/27 15:35:26;;;;;;;9.43;3.90;;;14.70;99.90;;;;;;6162196;23;20170;-94
2023/05/27 15:38:01;;;;;;;6.67;3.40;;;14.50;99.90;;;;;;6158491;23;20234;-94
2023/05/27 15:40:38;;;;;;;9.00;3.10;;;14.50;99.90;;;;;;6158431;23;20185;-94